createdAt,value
2018-04-14T00:04:51.151Z,9.00
2018-04-14T00:09:54.480Z,8.90
2018-04-14T00:14:57.561Z,8.90
2018-04-14T00:20:00.434Z,8.90
2018-04-14T00:25:04.132Z,8.80
2018-04-14T00:30:07.951Z,8.80
2018-04-14T00:35:11.703Z,8.70
2018-04-14T00:40:14.850Z,8.60
2018-04-14T00:45:17.654Z,8.60
2018-04-14T00:50:20.560Z,8.50
2018-04-14T00:55:23.699Z,8.50
2018-04-14T01:00:26.529Z,8.40
2018-04-14T01:05:29.329Z,8.40
2018-04-14T01:10:32.285Z,8.30
2018-04-14T01:15:35.474Z,8.30
2018-04-14T01:20:39.436Z,8.20
2018-04-14T01:25:42.467Z,8.20
2018-04-14T01:30:45.711Z,8.10
2018-04-14T01:35:48.653Z,8.10
2018-04-14T01:40:52.037Z,8.00
2018-04-14T01:45:55.371Z,8.00
2018-04-14T01:50:58.892Z,8.00
2018-04-14T01:56:02.874Z,7.90
2018-04-14T02:01:05.694Z,7.90
2018-04-14T02:06:08.415Z,7.80
2018-04-14T02:11:11.453Z,7.80
2018-04-14T02:16:14.440Z,7.80
2018-04-14T02:26:25.015Z,7.60
2018-04-14T02:31:28.311Z,7.60
2018-04-14T02:36:31.731Z,7.50
2018-04-14T02:41:34.823Z,7.40
2018-04-14T02:46:37.580Z,7.40
2018-04-14T02:51:41.378Z,7.40
2018-04-14T02:56:45.241Z,7.30
2018-04-14T03:01:48.786Z,7.30
2018-04-14T03:06:52.375Z,7.20
2018-04-14T03:11:55.699Z,7.20
2018-04-14T03:16:58.727Z,7.10
2018-04-14T03:22:02.301Z,7.10
2018-04-14T03:27:05.351Z,7.00
2018-04-14T03:32:09.022Z,7.00
2018-04-14T03:37:11.685Z,6.90
2018-04-14T03:42:14.414Z,6.90
2018-04-14T03:47:17.404Z,6.90
2018-04-14T03:52:20.439Z,6.80
2018-04-14T03:57:23.587Z,6.80
2018-04-14T04:02:26.375Z,6.80
2018-04-14T04:07:29.377Z,6.80
2018-04-14T04:12:32.221Z,6.70
2018-04-14T04:17:35.456Z,6.70
2018-04-14T04:22:49.904Z,6.70
2018-04-14T04:27:53.544Z,6.70
2018-04-14T04:32:56.833Z,6.70
2018-04-14T04:38:00.044Z,6.70
2018-04-14T04:43:02.896Z,6.70
2018-04-14T04:48:05.968Z,6.70
2018-04-14T04:53:08.984Z,6.70
2018-04-14T04:58:11.865Z,6.70
2018-04-14T05:03:15.515Z,6.70
2018-04-14T05:08:19.133Z,6.70
2018-04-14T05:13:22.287Z,6.80
2018-04-14T05:18:25.114Z,6.80
2018-04-14T05:23:29.269Z,7.00
2018-04-14T05:28:33.186Z,7.00
2018-04-14T05:33:36.257Z,7.20
2018-04-14T05:38:42.471Z,7.30
2018-04-14T05:43:45.252Z,7.50
2018-04-14T05:48:48.832Z,7.60
2018-04-14T05:53:52.687Z,7.80
2018-04-14T05:58:55.382Z,8.00
2018-04-14T06:03:58.152Z,8.30
2018-04-14T06:09:01.199Z,8.60
2018-04-14T06:14:04.233Z,8.90
2018-04-14T06:19:07.637Z,9.20
2018-04-14T06:24:10.230Z,9.50
2018-04-14T06:29:13.076Z,9.90
2018-04-14T06:34:15.842Z,10.20
2018-04-14T06:39:18.706Z,10.50
2018-04-14T06:44:21.416Z,10.80
2018-04-14T06:49:24.294Z,11.20
2018-04-14T06:54:27.108Z,11.50
2018-04-14T06:59:30.159Z,11.80
2018-04-14T07:04:33.708Z,12.20
2018-04-14T07:09:37.918Z,12.60
2018-04-14T07:14:40.588Z,12.90
2018-04-14T07:19:46.740Z,13.30
2018-04-14T07:24:50.003Z,13.70
2018-04-14T07:29:54.588Z,14.10
2018-04-14T07:34:57.851Z,14.50
2018-04-14T07:40:00.922Z,14.80
2018-04-14T07:45:03.890Z,15.20
2018-04-14T07:50:07.228Z,15.50
2018-04-14T07:55:09.991Z,15.80
2018-04-14T08:00:12.787Z,16.10
2018-04-14T08:05:15.574Z,16.40
2018-04-14T08:10:18.389Z,16.70
2018-04-14T08:15:21.149Z,16.90
2018-04-14T08:20:24.417Z,17.20
2018-04-14T08:25:27.142Z,17.50
2018-04-14T08:30:30.033Z,17.70
2018-04-14T08:35:35.180Z,18.00
2018-04-14T08:40:37.868Z,18.20
2018-04-14T08:45:40.512Z,18.30
2018-04-14T08:50:43.249Z,18.50
2018-04-14T08:55:46.252Z,18.70
2018-04-14T09:00:49.131Z,19.00
2018-04-14T09:05:53.414Z,19.20
2018-04-14T09:10:57.134Z,19.50
2018-04-14T09:16:00.725Z,19.50
2018-04-14T09:21:03.776Z,19.70
2018-04-14T09:26:07.350Z,19.80
2018-04-14T09:31:11.809Z,20.10
2018-04-14T09:36:15.851Z,20.30
2018-04-14T09:41:18.763Z,20.50
2018-04-14T09:46:21.527Z,20.70
2018-04-14T09:51:24.347Z,20.80
2018-04-14T09:56:27.271Z,21.00
2018-04-14T10:01:29.957Z,21.20
2018-04-14T10:06:32.994Z,21.30
2018-04-14T10:11:35.940Z,21.40
2018-04-14T10:16:40.170Z,21.60
2018-04-14T10:21:43.397Z,21.80
2018-04-14T10:26:46.550Z,22.10
2018-04-14T10:31:49.735Z,22.30
2018-04-14T10:36:54.110Z,22.40
2018-04-14T10:41:57.173Z,22.60
2018-04-14T10:47:00.898Z,22.80
2018-04-14T10:52:03.991Z,23.00
2018-04-14T10:57:08.312Z,23.20
2018-04-14T11:02:11.846Z,23.30
2018-04-14T11:07:15.685Z,23.50
2018-04-14T11:12:19.354Z,23.60
2018-04-14T11:17:25.180Z,23.70
2018-04-14T11:22:29.870Z,23.80
2018-04-14T11:27:33.097Z,23.90
2018-04-14T11:32:37.590Z,24.00
2018-04-14T11:37:41.671Z,24.00
2018-04-14T11:42:44.903Z,24.00
2018-04-14T11:47:47.977Z,24.20
2018-04-14T11:52:50.779Z,24.30
2018-04-14T11:57:53.614Z,24.50
2018-04-14T12:02:57.007Z,24.70
2018-04-14T12:07:59.919Z,24.80
2018-04-14T12:13:02.662Z,24.80
2018-04-14T12:18:05.449Z,25.00
2018-04-14T12:23:08.220Z,25.10
2018-04-14T12:28:11.562Z,25.20
2018-04-14T12:33:14.286Z,25.20
2018-04-14T12:38:17.217Z,25.30
2018-04-14T12:43:20.141Z,25.40
2018-04-14T12:48:23.144Z,25.50
2018-04-14T12:53:26.044Z,25.50
2018-04-14T12:58:28.925Z,25.60
2018-04-14T13:03:31.657Z,25.70
2018-04-14T13:08:34.386Z,25.80
2018-04-14T13:13:37.136Z,25.80
2018-04-14T13:18:39.974Z,25.70
2018-04-14T13:23:42.750Z,25.60
2018-04-14T13:28:45.604Z,25.50
2018-04-14T13:33:49.225Z,25.50
2018-04-14T13:38:52.761Z,25.40
2018-04-14T13:43:56.667Z,25.40
2018-04-14T13:48:59.708Z,25.40
2018-04-14T13:54:02.458Z,25.30
2018-04-14T13:59:05.241Z,25.30
2018-04-14T14:04:08.046Z,25.20
2018-04-14T14:09:10.687Z,25.10
2018-04-14T14:14:13.371Z,25.10
2018-04-14T14:19:16.120Z,25.00
2018-04-14T14:24:18.935Z,24.90
2018-04-14T14:29:21.673Z,24.70
2018-04-14T14:34:24.305Z,24.60
2018-04-14T14:39:27.035Z,24.50
2018-04-14T14:44:29.654Z,24.40
2018-04-14T14:49:32.464Z,24.40
2018-04-14T14:54:35.394Z,24.30
2018-04-14T14:59:38.159Z,24.30
2018-04-14T15:04:40.895Z,24.20
2018-04-14T15:09:43.611Z,24.20
2018-04-14T15:14:46.725Z,24.20
2018-04-14T15:19:50.335Z,24.10
2018-04-14T15:24:53.525Z,24.10
2018-04-14T15:29:56.288Z,24.00
2018-04-14T15:34:59.097Z,24.00
2018-04-14T15:40:01.963Z,23.90
2018-04-14T15:45:04.967Z,23.80
2018-04-14T15:50:07.760Z,23.70
2018-04-14T15:55:10.940Z,23.50
2018-04-14T16:00:13.855Z,23.40
2018-04-14T16:05:17.577Z,23.20
2018-04-14T16:10:20.536Z,23.10
2018-04-14T16:15:23.207Z,23.00
2018-04-14T16:20:25.959Z,22.90
2018-04-14T16:25:28.899Z,22.80
2018-04-14T16:30:32.207Z,22.70
2018-04-14T16:35:34.914Z,22.60
2018-04-14T16:40:37.866Z,22.50
2018-04-14T16:45:40.593Z,22.40
2018-04-14T16:50:43.384Z,22.30
2018-04-14T16:55:46.464Z,22.20
2018-04-14T17:00:49.516Z,22.10
2018-04-14T17:05:52.510Z,21.90
2018-04-14T17:10:55.394Z,21.80
2018-04-14T17:15:58.119Z,21.60
2018-04-14T17:21:00.959Z,21.50
2018-04-14T17:26:04.260Z,21.30
2018-04-14T17:31:08.030Z,21.10
2018-04-14T17:36:10.667Z,21.00
2018-04-14T17:41:14.034Z,20.80
2018-04-14T17:46:16.987Z,20.60
2018-04-14T17:51:19.845Z,20.40
2018-04-14T17:56:22.689Z,20.20
2018-04-14T18:01:25.547Z,20.10
2018-04-14T18:06:28.979Z,19.70
2018-04-14T18:11:31.802Z,19.70
2018-04-14T18:16:34.403Z,19.60
2018-04-14T18:21:37.754Z,19.40
2018-04-14T18:26:40.997Z,19.20
2018-04-14T18:31:44.171Z,19.00
2018-04-14T18:36:47.141Z,18.80
2018-04-14T18:41:50.222Z,18.70
2018-04-14T18:46:52.924Z,18.50
2018-04-14T18:51:57.289Z,18.40
2018-04-14T18:57:00.210Z,18.10
2018-04-14T19:02:03.318Z,18.00
2018-04-14T19:07:06.421Z,17.70
2018-04-14T19:12:09.187Z,17.60
2018-04-14T19:17:12.220Z,17.40
2018-04-14T19:22:14.912Z,17.20
2018-04-14T19:27:18.135Z,17.10
2018-04-14T19:32:20.965Z,16.90
2018-04-14T19:37:23.748Z,16.70
2018-04-14T19:42:28.375Z,16.60
2018-04-14T19:47:32.210Z,16.40
2018-04-14T19:52:35.310Z,16.30
2018-04-14T19:57:39.548Z,16.10
2018-04-14T20:02:42.385Z,16.00
2018-04-14T20:07:49.749Z,15.90
2018-04-14T20:12:59.940Z,15.80
2018-04-14T20:18:02.934Z,15.70
2018-04-14T20:23:06.255Z,15.50
2018-04-14T20:28:09.281Z,15.40
2018-04-14T20:33:12.011Z,15.30
2018-04-14T20:38:14.878Z,15.20
2018-04-14T20:43:17.626Z,15.10
2018-04-14T20:48:20.529Z,15.00
2018-04-14T20:53:23.214Z,14.90
2018-04-14T20:58:25.889Z,14.80
2018-04-14T21:03:29.390Z,14.70
2018-04-14T21:08:32.844Z,14.60
2018-04-14T21:13:36.323Z,14.50
2018-04-14T21:18:39.991Z,14.40
2018-04-14T21:23:42.998Z,14.30
2018-04-14T21:28:46.186Z,14.30
2018-04-14T21:33:49.085Z,14.20
2018-04-14T21:38:52.122Z,14.10
2018-04-14T21:49:03.682Z,13.90
2018-04-14T21:54:07.302Z,13.90
2018-04-14T21:59:09.951Z,13.80
2018-04-14T22:04:13.407Z,13.70
2018-04-14T22:09:17.121Z,13.60
2018-04-14T22:14:31.948Z,13.60
2018-04-14T22:19:35.322Z,13.50
2018-04-14T22:24:39.238Z,13.40
2018-04-14T22:29:42.030Z,13.40
2018-04-14T22:34:44.864Z,13.30
2018-04-14T22:39:47.753Z,13.20
2018-04-14T22:44:51.261Z,13.20
2018-04-14T22:49:53.920Z,13.10
2018-04-14T22:54:56.742Z,13.10
2018-04-14T22:59:59.534Z,13.00
2018-04-14T23:05:02.460Z,13.00
2018-04-14T23:10:05.356Z,12.90
2018-04-14T23:15:08.137Z,12.90
2018-04-14T23:20:11.460Z,12.80
2018-04-14T23:25:14.855Z,12.80
2018-04-14T23:30:17.545Z,12.70
2018-04-14T23:35:20.461Z,12.60
2018-04-14T23:40:23.168Z,12.60
2018-04-14T23:45:25.994Z,12.60
2018-04-14T23:50:28.709Z,12.50
2018-04-14T23:55:31.456Z,12.50
